Wake Village, Texas
Current Conditions -  °F | °C
As of 2:53 PM on Saturday 20 Dec 2014 (Local Time) from KTXK Reporting Station
Overcast Overcast  
Wind Chill: 50°   Ceiling: 3800
Heat Index: 50°   Visibility: 8mi
Dew Point: 42°   Wind: 3mph
Humidity: 74%   Direction: 350°N
Pressure: 30.2"   Gusts: NA
Location:  33.3633°N, 94.2141°W
Report Text: KTXK 202053Z AUTO 35003KT 8SM OVC038 10/06 A3020 RMK AO2 SLP225 T01000056 55015
Loading
Personal Weather Stations






























Interactive Weather Map New forecast layout! Learn more

10-Day Weather Forecast

Advertisements
Track Severe Weather on mobile